Time;durP1;ratioP1;P1;durP2;ratioP2;P2;SDS_P1;SDS_P2;PMS_P1;PMS_P2;Temp;Humidity;BMP_temperature;BMP_pressure;BME280_temperature;BME280_humidity;BME280_pressure;Samples;Min_cycle;Max_cycle;Signal;HPM_P1;HPM_P2
2023/01/28 00:02:30;;;;;;;13.15;1.40;;;;;;;18.28;35.41;102780.69;16120952;19;130489;-47
2023/01/28 00:07:52;;;;;;;5.80;1.23;;;;;;;18.27;35.79;102778.97;16128000;19;130173;-54
2023/01/28 00:13:14;;;;;;;10.10;1.30;;;;;;;18.24;35.95;102780.22;16134194;19;134980;-54
2023/01/28 00:18:36;;;;;;;14.52;1.92;;;;;;;18.24;35.58;102773.81;16128233;19;132084;-49
2023/01/28 00:23:58;;;;;;;9.85;1.20;;;;;;;18.19;35.81;102776.34;16126188;19;129768;-50
2023/01/28 00:29:20;;;;;;;4.95;1.05;;;;;;;18.14;35.58;102777.78;16123859;19;129576;-52
2023/01/28 00:34:42;;;;;;;8.23;0.98;;;;;;;18.11;35.46;102780.94;16125553;19;129712;-51
2023/01/28 00:40:04;;;;;;;2.85;0.75;;;;;;;18.09;35.44;102788.59;16120450;19;130998;-51
2023/01/28 00:45:26;;;;;;;1.73;0.60;;;;;;;18.05;35.35;102789.19;16125972;19;129106;-49
2023/01/28 00:50:48;;;;;;;3.05;0.85;;;;;;;18.02;35.55;102803.44;16124820;19;131020;-50
2023/01/28 00:56:12;;;;;;;3.08;1.00;;;;;;;17.98;35.31;102803.81;16126618;19;130970;-49
2023/01/28 01:01:34;;;;;;;6.72;1.27;;;;;;;17.94;35.24;102804.41;16122521;19;130074;-51
2023/01/28 01:06:56;;;;;;;1.77;0.95;;;;;;;17.91;35.32;102799.25;16126789;19;129153;-50
2023/01/28 01:12:18;;;;;;;2.78;1.08;;;;;;;17.89;35.31;102809.66;16125245;19;129953;-48
2023/01/28 01:17:41;;;;;;;1.10;0.80;;;;;;;17.85;34.90;102809.22;16124925;19;129540;-49
2023/01/28 01:23:03;;;;;;;3.95;1.52;;;;;;;17.81;35.04;102808.75;16124800;19;129629;-53
2023/01/28 01:28:25;;;;;;;2.80;0.98;;;;;;;17.79;34.93;102815.50;16123919;19;129543;-52
2023/01/28 01:33:48;;;;;;;3.00;0.77;;;;;;;17.77;34.82;102812.94;16125961;19;129318;-50
2023/01/28 01:39:13;;;;;;;2.42;0.90;;;;;;;17.75;34.96;102815.03;16124154;19;131532;-48
2023/01/28 01:44:54;;;;;;;1.67;0.63;;;;;;;17.74;35.03;102818.03;16125926;19;131016;-51
2023/01/28 01:50:15;;;;;;;1.80;0.80;;;;;;;17.70;34.87;102820.31;16124170;19;129429;-51
2023/01/28 01:55:40;;;;;;;1.52;0.60;;;;;;;17.67;35.14;102815.16;16127921;19;129474;-50
2023/01/28 02:01:02;;;;;;;2.53;0.75;;;;;;;17.65;35.07;102826.44;16126890;19;129440;-53
2023/01/28 02:06:24;;;;;;;0.70;0.60;;;;;;;17.61;34.98;102819.56;16122469;19;130444;-50
2023/01/28 02:11:46;;;;;;;2.30;0.80;;;;;;;17.59;35.07;102815.28;16124011;19;129416;-47
2023/01/28 02:17:08;;;;;;;0.85;0.60;;;;;;;17.58;34.67;102813.56;16123297;19;129400;-51
2023/01/28 02:23:02;;;;;;;0.85;0.60;;;;;;;17.55;34.63;102812.03;16118589;19;128899;-50
2023/01/28 02:28:56;;;;;;;1.33;0.47;;;;;;;17.55;35.01;102812.03;16115377;19;130428;-48
2023/01/28 02:34:38;;;;;;;0.90;0.60;;;;;;;17.53;34.86;102817.72;16116929;19;130421;-52
2023/01/28 02:40:07;;;;;;;0.60;0.60;;;;;;;17.49;34.81;102821.94;16117735;19;130669;-49
2023/01/28 02:51:41;;;;;;;0.75;0.40;;;;;;;17.48;34.88;102816.59;16119189;19;131824;-49
2023/01/28 02:57:22;;;;;;;0.70;0.68;;;;;;;17.43;34.96;102817.19;16115967;19;131192;-50
2023/01/28 03:03:15;;;;;;;1.52;0.50;;;;;;;17.42;34.85;102818.22;16117874;19;129510;-47
2023/01/28 03:37:09;;;;;;;1.63;0.93;;;;;;;17.25;34.51;102842.47;16122173;19;129327;-56
2023/01/28 03:42:32;;;;;;;1.02;0.82;;;;;;;17.23;34.35;102845.41;16132496;19;129557;-56
2023/01/28 03:47:53;;;;;;;1.63;1.05;;;;;;;17.21;34.11;102847.53;16132030;19;129655;-55
2023/01/28 03:53:16;;;;;;;1.73;0.98;;;;;;;17.20;34.47;102844.91;16122991;19;131228;-55
2023/01/28 04:04:31;;;;;;;0.85;0.80;;;;;;;17.17;34.16;102846.16;16129475;19;132323;-56
2023/01/28 04:09:53;;;;;;;0.70;0.70;;;;;;;17.16;33.95;102852.75;16135496;19;129157;-54
2023/01/28 04:15:15;;;;;;;0.70;0.70;;;;;;;17.15;34.09;102864.84;16131171;19;129444;-50
2023/01/28 04:20:38;;;;;;;0.93;0.82;;;;;;;17.13;33.80;102866.94;16128421;19;130149;-51
2023/01/28 04:26:02;;;;;;;0.80;0.80;;;;;;;17.09;33.72;102868.41;16126950;19;129967;-50
2023/01/28 04:31:24;;;;;;;0.98;0.90;;;;;;;17.07;33.82;102868.56;16127910;19;130702;-51
2023/01/28 04:36:46;;;;;;;0.70;0.70;;;;;;;17.05;34.07;102870.66;16129716;19;130472;-50
2023/01/28 04:42:08;;;;;;;0.80;0.80;;;;;;;17.04;33.96;102868.09;16130103;19;129410;-52
2023/01/28 04:47:30;;;;;;;1.17;0.80;;;;;;;17.01;33.44;102863.78;16129723;19;130826;-51
2023/01/28 04:52:52;;;;;;;0.75;0.75;;;;;;;16.99;33.32;102867.78;16129288;19;130761;-48
2023/01/28 04:58:14;;;;;;;0.80;0.80;;;;;;;16.97;33.60;102870.75;16129257;19;134707;-51
2023/01/28 05:03:35;;;;;;;0.90;0.90;;;;;;;16.95;33.26;102875.59;16129815;19;130039;-50
2023/01/28 05:08:57;;;;;;;0.70;0.70;;;;;;;16.93;33.20;102866.63;16125674;19;129605;-50
2023/01/28 05:14:19;;;;;;;1.20;1.00;;;;;;;16.92;33.00;102870.47;16123679;19;130008;-50
2023/01/28 05:19:41;;;;;;;0.90;0.65;;;;;;;16.90;33.41;102867.88;16122338;19;129541;-54
2023/01/28 05:25:03;;;;;;;0.60;0.60;;;;;;;16.89;33.10;102874.44;16119816;19;130681;-53
2023/01/28 05:30:25;;;;;;;0.60;0.60;;;;;;;16.88;33.05;102866.34;16124191;19;129608;-52
2023/01/28 05:35:48;;;;;;;0.47;0.47;;;;;;;16.87;33.29;102873.75;16125689;19;129737;-47
2023/01/28 05:41:10;;;;;;;0.50;0.50;;;;;;;16.86;33.58;102869.28;16122928;19;130290;-49
2023/01/28 05:46:31;;;;;;;0.70;0.65;;;;;;;16.87;33.35;102864.63;16123206;19;130699;-47
2023/01/28 05:51:53;;;;;;;0.50;0.50;;;;;;;16.85;33.37;102886.94;16124400;19;130218;-48
2023/01/28 05:57:15;;;;;;;0.60;0.60;;;;;;;16.82;33.13;102870.72;16122679;19;129927;-53
2023/01/28 06:02:38;;;;;;;0.50;0.50;;;;;;;16.81;33.36;102871.75;16117401;19;129640;-48
2023/01/28 06:07:59;;;;;;;1.60;0.68;;;;;;;16.80;33.11;102888.53;16122948;19;129713;-49
2023/01/28 06:13:21;;;;;;;0.98;0.90;;;;;;;16.77;33.31;102874.03;16124692;19;129367;-49
2023/01/28 06:18:43;;;;;;;1.05;0.80;;;;;;;16.77;32.99;102884.22;16121095;19;128982;-51
2023/01/28 06:24:05;;;;;;;0.40;0.40;;;;;;;16.76;33.02;102888.03;16121221;19;130307;-48
2023/01/28 06:29:27;;;;;;;0.80;0.80;;;;;;;16.74;33.21;102901.16;16119760;19;129406;-49
2023/01/28 06:34:49;;;;;;;0.73;0.63;;;;;;;16.73;32.97;102899.47;16118355;19;134822;-48
2023/01/28 06:40:11;;;;;;;0.70;0.70;;;;;;;16.73;33.27;102896.72;16121699;19;129545;-52
2023/01/28 06:45:33;;;;;;;0.63;0.63;;;;;;;16.80;32.57;102900.44;16114838;19;130129;-49
2023/01/28 06:50:55;;;;;;;0.40;0.40;;;;;;;17.11;32.43;102906.91;16121554;19;130012;-50
2023/01/28 06:56:17;;;;;;;0.40;0.40;;;;;;;17.64;31.91;102907.75;16121167;19;130301;-52
2023/01/28 07:01:38;;;;;;;0.80;0.30;;;;;;;18.19;31.88;102903.78;16118382;19;129660;-50
2023/01/28 07:07:00;;;;;;;0.30;0.30;;;;;;;18.70;31.30;102914.81;16119848;19;129570;-51
2023/01/28 07:12:22;;;;;;;0.32;0.32;;;;;;;19.14;31.19;102910.03;16118008;19;129535;-54
2023/01/28 07:17:44;;;;;;;0.45;0.20;;;;;;;19.46;30.97;102912.44;16118096;19;129278;-51
2023/01/28 07:23:06;;;;;;;0.10;0.10;;;;;;;19.64;30.55;102915.53;16118368;19;129429;-54
2023/01/28 07:28:28;;;;;;;0.43;0.20;;;;;;;19.68;30.41;102913.22;16115449;19;132305;-51
2023/01/28 07:33:50;;;;;;;0.20;0.20;;;;;;;19.61;30.43;102926.22;16115401;19;131182;-52
2023/01/28 07:39:12;;;;;;;0.20;0.20;;;;;;;19.44;30.87;102923.75;16116337;19;129461;-53
2023/01/28 07:44:35;;;;;;;0.73;0.60;;;;;;;19.22;30.49;102928.47;16116136;19;130936;-54
2023/01/28 07:49:57;;;;;;;1.25;1.05;;;;;;;18.98;30.29;102941.69;16111423;19;130196;-54
2023/01/28 07:55:19;;;;;;;2.45;0.77;;;;;;;18.80;30.27;102931.09;16115988;19;130685;-55
2023/01/28 08:00:41;;;;;;;3.28;0.75;;;;;;;18.67;31.05;102934.59;16110694;19;130118;-49
2023/01/28 08:06:03;;;;;;;0.63;0.43;;;;;;;18.58;31.07;102938.56;16110594;19;129729;-50
2023/01/28 08:11:24;;;;;;;1.67;0.85;;;;;;;18.64;31.43;102948.00;16109226;19;129709;-50
2023/01/28 08:16:47;;;;;;;2.13;0.70;;;;;;;18.71;31.36;102947.00;16112840;19;131440;-46
2023/01/28 08:22:08;;;;;;;1.58;0.50;;;;;;;18.82;31.21;102945.63;16107969;19;129476;-50
2023/01/28 08:27:31;;;;;;;0.77;0.52;;;;;;;18.92;31.01;102959.16;16125222;19;130686;-48
2023/01/28 08:32:59;;;;;;;3.63;0.60;;;;;;;19.07;30.86;102975.72;16131727;19;130264;-50
2023/01/28 08:38:21;;;;;;;0.93;0.75;;;;;;;19.24;30.47;102978.25;16126662;19;131531;-52
2023/01/28 08:43:43;;;;;;;2.88;0.60;;;;;;;19.44;30.23;102983.97;16127733;19;130451;-51
2023/01/28 08:49:05;;;;;;;1.05;0.60;;;;;;;19.63;30.55;102991.56;16129579;19;131546;-52
2023/01/28 08:54:27;;;;;;;1.75;0.70;;;;;;;19.85;30.13;102999.81;16125796;19;130498;-51
2023/01/28 08:59:48;;;;;;;0.85;0.60;;;;;;;19.99;29.98;102998.88;16127500;19;131723;-55
2023/01/28 09:05:10;;;;;;;0.70;0.70;;;;;;;20.12;29.59;103009.19;16125499;19;130896;-50
2023/01/28 09:10:33;;;;;;;0.90;0.73;;;;;;;20.24;29.00;103006.69;16122359;19;129091;-50
2023/01/28 09:15:55;;;;;;;2.83;0.60;;;;;;;20.38;29.22;103023.44;16123828;19;129403;-50
2023/01/28 09:21:17;;;;;;;1.60;0.60;;;;;;;20.43;29.30;103013.41;16124086;19;129668;-51
2023/01/28 09:26:38;;;;;;;1.45;0.60;;;;;;;20.41;29.35;103017.47;16120460;19;130882;-50
2023/01/28 09:32:00;;;;;;;7.05;0.60;;;;;;;20.35;29.43;103026.63;16121790;19;129687;-51
2023/01/28 09:37:22;;;;;;;0.73;0.60;;;;;;;20.25;29.54;103008.41;16120180;19;131047;-49
2023/01/28 09:42:57;;;;;;;0.70;0.50;;;;;;;20.16;29.76;103011.56;16117872;19;129919;-52
2023/01/28 09:48:23;;;;;;;15.93;2.28;;;;;;;20.04;29.70;103028.81;16121517;19;129518;-48
2023/01/28 09:53:47;;;;;;;9.55;1.58;;;;;;;19.88;29.66;103032.75;16123546;19;129964;-47
2023/01/28 09:59:13;;;;;;;;;;;;;;;19.71;29.55;103036.91;16122877;19;129429;-50
2023/01/28 10:04:53;;;;;;;4.55;1.27;;;;;;;19.60;30.15;103043.88;16123277;19;130405;-50
2023/01/28 10:10:24;;;;;;;7.85;1.58;;;;;;;19.49;29.98;103042.50;16119816;19;129711;-52
2023/01/28 10:16:13;;;;;;;7.30;1.23;;;;;;;19.43;30.12;103044.16;16120525;19;129583;-49
2023/01/28 10:21:37;;;;;;;8.23;1.25;;;;;;;19.35;30.50;103053.47;16121579;19;129926;-51
2023/01/28 10:26:59;;;;;;;5.88;1.15;;;;;;;19.31;30.49;103045.75;16116776;19;129783;-47
2023/01/28 10:32:25;;;;;;;4.15;1.20;;;;;;;19.26;30.37;103054.69;16121584;19;129736;-51
2023/01/28 10:37:48;;;;;;;2.53;1.08;;;;;;;19.20;30.04;103039.66;16121565;19;129174;-51
2023/01/28 10:43:10;;;;;;;5.18;1.10;;;;;;;19.17;30.05;103056.69;16119975;19;130431;-48
2023/01/28 10:49:13;;;;;;;4.33;1.40;;;;;;;19.14;30.00;103062.63;16116328;19;130051;-52
2023/01/28 10:54:35;;;;;;;3.38;1.10;;;;;;;19.08;30.31;103053.19;16118705;19;129560;-47
2023/01/28 10:59:57;;;;;;;1.73;0.93;;;;;;;19.06;30.06;103049.78;16121365;19;129713;-51
2023/01/28 11:05:29;;;;;;;5.38;1.33;;;;;;;19.05;29.94;103059.16;16116723;19;130278;-51
2023/01/28 11:10:52;;;;;;;1.55;0.98;;;;;;;19.02;30.27;103048.44;16113580;19;130687;-50
2023/01/28 11:16:18;;;;;;;2.28;1.40;;;;;;;18.98;29.99;103044.34;16113121;19;129852;-50
2023/01/28 11:21:46;;;;;;;;;;;;;;;18.94;30.02;103042.16;16115362;19;129558;-49
2023/01/28 11:27:15;;;;;;;4.50;1.50;;;;;;;18.93;30.11;103052.41;16119333;19;129637;-47
2023/01/28 11:32:37;;;;;;;5.72;1.70;;;;;;;18.88;29.99;103030.81;16115229;19;129346;-50
2023/01/28 11:37:59;;;;;;;3.90;1.40;;;;;;;18.83;30.08;103030.53;16116902;19;132284;-49
2023/01/28 11:43:24;;;;;;;5.30;2.20;;;;;;;18.76;30.23;103008.28;16119093;19;129209;-50
2023/01/28 11:49:23;;;;;;;3.22;1.85;;;;;;;18.71;30.03;103015.47;16116878;19;129982;-49
2023/01/28 11:55:03;;;;;;;9.48;2.20;;;;;;;18.58;30.26;102999.56;16116994;19;129749;-49
2023/01/28 12:00:43;;;;;;;9.73;2.13;;;;;;;18.51;30.04;102984.75;16124333;19;131339;-50
2023/01/28 12:06:36;;;;;;;10.63;1.48;;;;;;;18.46;30.69;102988.09;16127712;19;130017;-50
2023/01/28 12:12:15;;;;;;;4.28;1.60;;;;;;;18.40;31.49;102970.34;16124919;19;130167;-50
2023/01/28 12:18:08;;;;;;;4.80;1.42;;;;;;;18.35;31.80;102950.63;16124949;19;129933;-47
2023/01/28 12:23:47;;;;;;;4.55;1.50;;;;;;;18.27;32.65;102920.25;16126399;19;129513;-51
2023/01/28 12:30:02;;;;;;;6.38;1.38;;;;;;;18.22;34.51;102892.28;16114558;19;134231;-50
2023/01/28 12:35:34;;;;;;;3.80;1.20;;;;;;;18.30;35.23;102906.03;16091986;19;131032;-45
2023/01/28 12:41:00;;;;;;;3.28;0.90;;;;;;;18.60;35.44;102897.63;16117832;19;131307;-47
2023/01/28 12:46:27;;;;;;;2.50;0.88;;;;;;;19.05;35.86;102897.38;16114292;19;130743;-52
2023/01/28 12:52:23;;;;;;;1.52;0.65;;;;;;;19.46;36.71;102899.41;16116144;19;131090;-47
2023/01/28 12:57:47;;;;;;;1.48;0.65;;;;;;;19.86;36.09;102923.78;16120759;19;130100;-49
2023/01/28 13:03:12;;;;;;;4.28;0.80;;;;;;;20.18;36.77;102940.84;16117744;19;132404;-47
2023/01/28 13:08:34;;;;;;;3.23;0.77;;;;;;;20.42;36.43;102947.75;16118647;19;133611;-50
2023/01/28 13:13:56;;;;;;;1.95;0.75;;;;;;;20.58;36.52;102949.28;16122273;19;132136;-48
2023/01/28 13:19:17;;;;;;;3.03;0.70;;;;;;;20.64;36.59;102953.13;16129276;19;129295;-49
2023/01/28 13:24:39;;;;;;;1.67;0.75;;;;;;;20.58;36.98;102952.06;16122775;19;130725;-49
2023/01/28 13:30:20;;;;;;;1.95;0.70;;;;;;;20.44;37.41;102942.84;16125473;19;130990;-49
2023/01/28 13:35:54;;;;;;;3.85;0.85;;;;;;;20.27;37.39;102945.16;16124092;19;130011;-52
2023/01/28 13:41:17;;;;;;;1.25;0.68;;;;;;;20.07;37.58;102950.63;16126202;19;130008;-48
2023/01/28 13:46:38;;;;;;;1.08;0.60;;;;;;;19.87;37.70;102953.25;16121688;19;129337;-52
2023/01/28 13:52:09;;;;;;;1.52;0.70;;;;;;;19.71;37.99;102928.59;16122294;19;130892;-46
2023/01/28 13:57:46;;;;;;;3.35;0.63;;;;;;;19.53;38.00;102921.66;16124434;19;131400;-51
2023/01/28 14:03:42;;;;;;;0.93;0.50;;;;;;;19.40;38.42;102921.59;16120943;19;129360;-48
2023/01/28 14:09:40;;;;;;;2.42;0.70;;;;;;;19.27;38.59;102906.56;16118530;19;130836;-51
2023/01/28 14:15:20;;;;;;;3.38;0.70;;;;;;;19.15;38.93;102919.22;16129047;19;130053;-51
2023/01/28 14:20:45;;;;;;;1.25;0.63;;;;;;;19.04;39.13;102903.97;16122617;19;129634;-49
2023/01/28 14:26:44;;;;;;;2.73;0.90;;;;;;;18.97;39.01;102894.75;16118120;19;130813;-53
2023/01/28 14:32:14;;;;;;;0.93;0.70;;;;;;;18.90;39.53;102878.06;16118646;19;129510;-52
2023/01/28 14:37:37;;;;;;;1.40;0.65;;;;;;;18.86;39.61;102893.38;16119352;19;130112;-53
2023/01/28 14:43:00;;;;;;;1.63;0.57;;;;;;;18.83;39.61;102904.91;16119558;19;129771;-53
2023/01/28 14:48:39;;;;;;;1.85;0.73;;;;;;;18.82;39.45;102911.50;16119108;19;129560;-50
2023/01/28 14:54:13;;;;;;;1.85;0.70;;;;;;;18.77;39.26;102918.50;16119934;19;130090;-55
2023/01/28 14:59:40;;;;;;;1.02;0.57;;;;;;;18.74;39.53;102951.31;16121915;19;129265;-55
2023/01/28 15:05:13;;;;;;;0.50;0.50;;;;;;;18.71;39.76;102935.91;16119906;19;129268;-49
2023/01/28 15:10:37;;;;;;;2.38;0.95;;;;;;;18.68;39.50;102958.50;16116791;19;130186;-51
2023/01/28 15:15:59;;;;;;;0.90;0.60;;;;;;;18.64;39.56;102961.88;16118171;19;129499;-49
2023/01/28 15:21:26;;;;;;;2.97;0.35;;;;;;;18.62;39.57;102953.72;16108756;19;129543;-49
2023/01/28 15:26:48;;;;;;;0.82;0.40;;;;;;;18.57;39.58;102936.84;16114176;19;129399;-50
2023/01/28 15:32:28;;;;;;;0.75;0.30;;;;;;;18.67;39.24;102928.19;16119948;19;130490;-51
2023/01/28 15:37:49;;;;;;;0.98;0.40;;;;;;;18.80;38.92;102933.00;16149004;19;130334;-50
2023/01/28 15:43:18;;;;;;;0.60;0.40;;;;;;;18.94;38.83;102929.31;16148396;19;129744;-55
2023/01/28 15:48:44;;;;;;;1.33;0.40;;;;;;;19.01;38.72;102944.09;16142331;19;130426;-54
2023/01/28 15:54:08;;;;;;;4.50;0.47;;;;;;;19.06;38.77;102971.22;16143993;19;129337;-55
2023/01/28 15:59:30;;;;;;;5.97;0.60;;;;;;;19.15;38.91;102975.56;16144709;19;131472;-57
2023/01/28 16:04:59;;;;;;;3.67;0.63;;;;;;;19.29;38.85;102990.47;16144142;19;130853;-53
2023/01/28 16:10:27;;;;;;;1.95;0.40;;;;;;;19.37;38.56;102995.88;16145975;19;129930;-50
2023/01/28 16:15:52;;;;;;;6.65;0.55;;;;;;;19.40;38.49;103007.63;16146827;19;134121;-50
2023/01/28 16:21:25;;;;;;;1.77;0.40;;;;;;;19.35;38.39;103019.34;16144983;19;129682;-50
2023/01/28 16:26:59;;;;;;;0.95;0.40;;;;;;;19.29;37.86;103026.53;16144780;19;131293;-52
2023/01/28 16:32:33;;;;;;;3.75;0.80;;;;;;;19.23;38.00;103016.22;16142317;19;129906;-48
2023/01/28 16:37:55;;;;;;;2.05;0.50;;;;;;;19.24;37.78;103001.28;16145149;19;129300;-50
2023/01/28 16:43:16;;;;;;;1.48;0.63;;;;;;;19.41;37.42;102989.91;16139270;19;129602;-47
2023/01/28 16:48:38;;;;;;;3.08;1.17;;;;;;;19.68;36.42;102977.94;16127200;19;130215;-50
2023/01/28 16:54:01;;;;;;;2.30;0.60;;;;;;;20.05;36.06;102990.81;16126768;19;129493;-55
2023/01/28 16:59:23;;;;;;;1.63;0.70;;;;;;;20.32;35.85;103004.78;16127390;19;129691;-48
2023/01/28 17:04:45;;;;;;;2.47;1.20;;;;;;;20.42;35.89;103008.06;16124912;19;129639;-51
2023/01/28 17:10:08;;;;;;;1.25;0.60;;;;;;;20.42;35.74;102991.38;16124153;19;129871;-50
2023/01/28 17:15:30;;;;;;;8.45;1.75;;;;;;;20.33;36.06;103010.16;16125869;19;130808;-49
2023/01/28 17:20:52;;;;;;;5.25;0.85;;;;;;;20.20;36.06;103004.53;16123650;19;129406;-48
2023/01/28 17:26:15;;;;;;;3.83;0.80;;;;;;;20.06;36.14;103004.47;16120067;19;130876;-51
2023/01/28 17:31:37;;;;;;;3.17;0.80;;;;;;;19.90;36.36;103011.19;16121030;19;130239;-48
2023/01/28 17:36:59;;;;;;;2.53;1.05;;;;;;;19.75;36.58;103005.78;16125401;19;129397;-48
2023/01/28 17:42:20;;;;;;;3.47;1.00;;;;;;;19.57;37.09;102989.59;16125799;19;129269;-49
2023/01/28 17:47:42;;;;;;;5.05;0.90;;;;;;;19.43;36.73;103021.13;16119898;19;129032;-48
2023/01/28 17:53:04;;;;;;;8.00;1.40;;;;;;;19.27;37.43;103034.22;16119579;19;130045;-49
2023/01/28 17:58:25;;;;;;;42.25;3.03;;;;;;;19.23;36.93;103027.31;16117112;19;129325;-48
2023/01/28 18:03:47;;;;;;;23.15;2.38;;;;;;;19.34;36.81;103021.22;16124305;19;130520;-47
2023/01/28 18:09:09;;;;;;;16.83;1.80;;;;;;;19.73;37.11;103015.34;16126118;19;132421;-52
2023/01/28 18:14:31;;;;;;;13.43;1.63;;;;;;;20.18;36.39;102999.22;16123309;19;130591;-50
2023/01/28 18:19:53;;;;;;;14.75;1.52;;;;;;;20.58;36.48;103013.25;16122546;19;131335;-52
2023/01/28 18:25:17;;;;;;;9.95;1.20;;;;;;;20.87;36.06;103021.47;16118580;19;130407;-49
2023/01/28 18:30:39;;;;;;;10.70;2.00;;;;;;;21.00;36.10;103029.84;16120606;19;131266;-52
2023/01/28 18:36:04;;;;;;;12.10;1.75;;;;;;;20.97;36.04;103044.22;16120068;19;129555;-54
2023/01/28 18:41:26;;;;;;;9.73;1.27;;;;;;;20.85;36.21;103046.72;16122496;19;130059;-51
2023/01/28 18:46:48;;;;;;;6.63;1.30;;;;;;;20.72;36.35;103057.78;16121972;19;129419;-46
2023/01/28 18:52:10;;;;;;;11.10;1.58;;;;;;;20.55;36.59;103063.72;16123308;19;130666;-47
2023/01/28 18:57:31;;;;;;;19.05;2.55;;;;;;;20.39;36.47;103059.34;16117381;19;131443;-50
2023/01/28 19:02:53;;;;;;;11.85;1.85;;;;;;;20.20;36.96;103066.53;16120884;19;129483;-50
2023/01/28 19:08:15;;;;;;;14.73;1.95;;;;;;;20.11;36.71;103056.66;16115092;19;130554;-50
2023/01/28 19:13:37;;;;;;;8.00;1.45;;;;;;;20.02;36.98;103063.44;16118575;19;129379;-48
2023/01/28 19:18:59;;;;;;;8.30;1.75;;;;;;;19.96;36.90;103063.16;16119629;19;130583;-49
2023/01/28 19:24:21;;;;;;;11.90;1.60;;;;;;;20.01;36.52;103056.16;16117038;19;129169;-51
2023/01/28 19:29:43;;;;;;;44.22;2.95;;;;;;;20.22;36.46;103050.50;16118107;19;129829;-49
2023/01/28 19:35:06;;;;;;;21.55;2.70;;;;;;;20.62;36.50;103046.19;16117926;19;130944;-50
2023/01/28 19:40:28;;;;;;;25.83;2.00;;;;;;;20.83;35.97;103048.84;16119014;19;129594;-48
2023/01/28 19:45:56;;;;;;;18.20;2.50;;;;;;;20.84;35.66;103042.22;16120307;19;130750;-52
2023/01/28 19:51:19;;;;;;;15.93;2.35;;;;;;;20.74;36.06;103042.59;16116973;19;129675;-49
2023/01/28 19:56:40;;;;;;;14.07;2.40;;;;;;;20.65;35.80;103041.06;16116771;19;129447;-51
2023/01/28 20:02:02;;;;;;;15.38;2.58;;;;;;;20.53;36.45;103045.53;16114763;19;130070;-49
2023/01/28 20:07:24;;;;;;;21.05;1.90;;;;;;;20.39;36.29;103051.03;16116026;19;129476;-52
2023/01/28 20:12:45;;;;;;;22.70;1.77;;;;;;;20.24;37.08;103055.88;16113846;19;129309;-48
2023/01/28 20:18:07;;;;;;;17.40;1.50;;;;;;;20.15;36.93;103060.75;16115239;19;130923;-49
2023/01/28 20:23:29;;;;;;;10.02;1.60;;;;;;;20.15;36.94;103052.41;16129300;19;134647;-47
2023/01/28 20:28:51;;;;;;;6.60;1.23;;;;;;;20.20;37.00;103044.28;16129716;19;130653;-50
2023/01/28 20:34:18;;;;;;;13.70;1.63;;;;;;;20.25;37.15;103044.53;16129927;19;129326;-54
2023/01/28 20:39:40;;;;;;;9.68;1.27;;;;;;;20.26;37.36;103032.38;16127998;19;129369;-51
2023/01/28 20:45:02;;;;;;;9.07;1.40;;;;;;;20.38;36.83;103029.00;16127947;19;129373;-51
2023/01/28 20:50:24;;;;;;;11.18;2.10;;;;;;;20.74;36.75;103030.63;16126570;19;129494;-51
2023/01/28 20:55:55;;;;;;;12.75;1.60;;;;;;;21.18;36.47;103022.81;16127643;19;129418;-52
2023/01/28 21:01:19;;;;;;;6.15;0.95;;;;;;;21.56;35.75;103030.56;16127237;19;132623;-53
2023/01/28 21:06:40;;;;;;;5.10;0.98;;;;;;;21.87;35.18;103026.22;16126873;19;129295;-52
2023/01/28 21:12:02;;;;;;;6.20;1.30;;;;;;;22.00;35.28;103014.19;16126236;19;129464;-50
2023/01/28 21:17:24;;;;;;;5.82;1.35;;;;;;;22.03;35.06;103012.91;16127667;19;129500;-49
2023/01/28 21:22:53;;;;;;;9.60;1.77;;;;;;;21.93;34.51;103030.06;16126324;19;130081;-52
2023/01/28 21:28:14;;;;;;;9.50;1.30;;;;;;;21.84;34.27;103032.25;16122555;19;129754;-52
2023/01/28 21:33:37;;;;;;;4.43;1.17;;;;;;;21.77;34.36;103021.13;16124445;19;130757;-55
2023/01/28 21:39:00;;;;;;;9.70;1.63;;;;;;;21.64;34.16;103035.06;16117062;19;130833;-52
2023/01/28 21:44:22;;;;;;;7.55;1.63;;;;;;;21.46;34.38;103025.38;16117396;19;129674;-53
2023/01/28 21:49:43;;;;;;;5.07;1.42;;;;;;;21.25;34.19;103020.88;16109405;19;129677;-54
2023/01/28 21:55:05;;;;;;;5.65;1.40;;;;;;;21.03;34.74;103017.47;16121604;19;131010;-54
2023/01/28 22:00:27;;;;;;;13.00;1.30;;;;;;;20.85;34.85;103018.06;16125297;19;129636;-51
2023/01/28 22:05:55;;;;;;;4.40;0.95;;;;;;;20.69;34.76;103019.25;16126526;19;130926;-52
2023/01/28 22:11:18;;;;;;;6.70;1.30;;;;;;;20.51;35.14;103025.41;16123541;19;129835;-55
2023/01/28 22:16:41;;;;;;;4.95;1.23;;;;;;;20.35;35.34;103018.28;16122139;19;129040;-58
2023/01/28 22:22:03;;;;;;;3.83;1.58;;;;;;;20.21;35.14;103021.00;16122925;19;129383;-56
2023/01/28 22:27:25;;;;;;;6.38;1.60;;;;;;;20.08;35.46;103021.81;16119647;19;129448;-57
2023/01/28 22:32:49;;;;;;;2.80;1.27;;;;;;;19.96;35.48;103038.13;16123434;19;131282;-49
2023/01/28 22:38:11;;;;;;;3.53;1.20;;;;;;;19.84;35.16;103034.22;16124728;19;130692;-52
2023/01/28 22:43:33;;;;;;;4.53;1.30;;;;;;;19.74;35.15;103034.59;16121965;19;131030;-50
2023/01/28 22:48:56;;;;;;;3.33;1.25;;;;;;;19.63;35.62;103035.16;16120895;19;129441;-51
2023/01/28 22:54:18;;;;;;;3.25;1.17;;;;;;;19.54;35.27;103026.13;16121240;19;131388;-51
2023/01/28 22:59:39;;;;;;;1.65;1.13;;;;;;;19.45;35.87;103027.28;16116713;19;130393;-52
2023/01/28 23:05:06;;;;;;;3.13;1.30;;;;;;;19.35;35.60;103022.94;16114338;19;130363;-53
2023/01/28 23:10:28;;;;;;;2.58;1.30;;;;;;;19.28;35.63;103024.81;16116248;19;130343;-51
2023/01/28 23:27:11;;;;;;;2.15;1.15;;;;;;;19.07;35.48;103006.25;16118507;19;128776;-52
2023/01/28 23:32:33;;;;;;;2.03;1.45;;;;;;;19.00;35.93;103002.56;16118429;19;131370;-52
2023/01/28 23:37:55;;;;;;;1.40;1.08;;;;;;;18.91;35.57;102999.03;16116788;19;130071;-53
2023/01/28 23:43:17;;;;;;;1.73;1.42;;;;;;;18.87;35.57;103000.47;16117092;19;129519;-50
2023/01/28 23:48:38;;;;;;;2.05;1.60;;;;;;;18.82;35.96;103003.00;16116487;19;129653;-54
2023/01/28 23:54:00;;;;;;;2.10;1.48;;;;;;;18.75;35.93;103003.78;16121955;19;130452;-51
2023/01/28 23:59:23;;;;;;;1.63;1.40;;;;;;;18.71;35.84;102996.06;16129359;19;130888;-52
